Nearby METAR Reports

 

KCMA - Camarillo, California, USA
Distance from station: WSW 4mi, 7km
Updated: Sat, 20-Oct-2018 10:55am PDT
Clear
Clear
 Wind from ENE
Wind: ENE 16 mph , 26 km/h, Gust: 28 mph , 44 km/h
Temperature: 90°F , 32°C
Dew Point: 28°F , -2°C
Humidity: 11%
Barometer: 29.95 inHg , 1014.2 hPa
Clouds: Clear
Visibility: 10 miles , 16 km
2018/10/20 17:55 KCMA 201755Z 07014G24KT 10SM CLR 32/M02 A2995 RMK AO2 SLP150 T03221017 10322 20128 50000
KNTD - Point Mugu Nas, California, USA
Distance from station: SSW 9mi, 15km
Updated: Sat, 20-Oct-2018 10:57am PDT
Clear
Clear
 Wind from ENE
Wind: ENE 10 mph , 17 km/h
Temperature: 88°F , 31°C
Dew Point: 32°F , 0°C
Humidity: 13%
Barometer: 29.96 inHg , 1014.6 hPa
Clouds: Clear
Visibility: 10 miles , 16 km
2018/10/20 17:57 KNTD 201757Z 07009KT 10SM CLR 31/00 A2996 RMK AO2 SLP145 T03110000 10311 20144 50002 $
 
KOXR - Oxnard, California, USA
Distance from station: WSW 10mi, 16km
Updated: Sat, 20-Oct-2018 10:51am PDT
Clear
Clear
 Wind from ENE
Wind: ENE 15 mph , 24 km/h, Gust: 25 mph , 41 km/h
Temperature: 88°F , 31°C
Dew Point: 30°F , -1°C
Humidity: 13%
Barometer: 29.95 inHg , 1014.2 hPa
Clouds: Clear
Visibility: 10 miles , 16 km
2018/10/20 17:51 KOXR 201751Z 07013G22KT 10SM CLR 31/M01 A2995 RMK AO2 SLP140 T03111006 10311 20172 58002
KVNY - Van Nuys, California, USA
Distance from station: E 31mi, 50km
Updated: Sat, 20-Oct-2018 10:51am PDT
Clear
Clear
 Wind from SSE
Wind: SSE 6 mph , 9 km/h
Temperature: 86°F , 30°C
Dew Point: 32°F , 0°C
Humidity: 14%
Barometer: 29.97 inHg , 1014.9 hPa
Clouds: Clear
Visibility: 10 miles , 16 km
2018/10/20 17:51 KVNY 201751Z 15005KT 10SM CLR 30/00 A2997 RMK AO2 SLP138 T03000000 10306 20167 58001
 
KWHP - La / Whiteman, California, USA
Distance from station: E 35mi, 56km
Updated: Sat, 20-Oct-2018 10:50am PDT
Clear
Clear
 Wind from E
Wind: E 6 mph , 9 km/h
Temperature: 79°F , 26°C
Dew Point: 30°F , -1°C
Humidity: 17%
Barometer: 30.02 inHg , 1016.6 hPa
Clouds: Clear
Visibility: 10 miles , 16 km
2018/10/20 17:50 KWHP 201750Z 10005KT 10SM SKC 26/M01 A3002
KSMO - Santa Monica, California, USA
Distance from station: ESE 36mi, 58km
Updated: Sat, 20-Oct-2018 10:51am PDT
Clear
Clear
 Wind from E
Wind: E 5 mph , 7 km/h
Temperature: 84°F , 29°C
Dew Point: 32°F , 0°C
Humidity: 15%
Barometer: 29.96 inHg , 1014.6 hPa
Clouds: Clear
Visibility: 10 miles , 16 km
2018/10/20 17:51 KSMO 201751Z 10004KT 10SM CLR 29/00 A2996 RMK AO2 SLP143 T02940000 10294 20167 50002
 
KBUR - Burbank, California, USA
Distance from station: E 38mi, 61km
Updated: Sat, 20-Oct-2018 10:53am PDT
Clear
Clear
 Wind from calm
Wind: Calm
Temperature: 81°F , 27°C
Dew Point: 32°F , 0°C
Humidity: 17%
Barometer: 29.98 inHg , 1015.2 hPa
Clouds: Clear
Visibility: 10 miles , 16 km
2018/10/20 17:53 KBUR 201753Z 00000KT 10SM CLR 27/00 A2998 RMK AO2 SLP138 T02670000 10267 20144 50002 $
KSDB - Sandberg, California, USA
Distance from station: NNE 40mi, 64km
Updated: Sat, 20-Oct-2018 10:53am PDT
Clear
Clear
 Wind from E
Wind: E 21 mph , 33 km/h, Gust: 28 mph , 44 km/h
Temperature: 66°F , 19°C
Dew Point: 25°F , -4°C
Humidity: 21%
Barometer: 30.18 inHg , 1022 hPa
Clouds: Clear
Visibility: 10 miles , 16 km
2018/10/20 17:53 KSDB 201753Z AUTO 08018G24KT 10SM CLR 19/M04 A3018 RMK AO2 SLP177 T01941044 10200 20133 50000
 
KLAX - Los Angeles, California, USA
Distance from station: ESE 42mi, 68km
Updated: Sat, 20-Oct-2018 10:53am PDT
Clear
Clear
 Wind from calm
Wind: Calm
Temperature: 84°F , 29°C
Dew Point: 32°F , 0°C
Humidity: 15%
Barometer: 29.95 inHg , 1014.2 hPa
Clouds: Clear
Visibility: 10 miles , 16 km
2018/10/20 17:53 KLAX 201753Z 00000KT 10SM CLR 29/00 A2995 RMK AO2 SLP142 T02940000 10294 20167 50003 $
KCQT - Los Angeles, California, USA
Distance from station: ESE 45mi, 73km
Updated: Sat, 20-Oct-2018 10:47am PDT
Clear
Clear
 Wind from calm
Wind: Calm
Temperature: 84°F , 29°C
Dew Point: 39°F , 4°C
Humidity: 20%
Barometer: 29.95 inHg , 1014.2 hPa
Clouds: Clear
Visibility: 10 miles , 16 km
2018/10/20 17:47 KCQT 201747Z AUTO 00000KT 10SM CLR 29/04 A2995 RMK AO2 SLP137 6//// T02890044 10289 20161 58001 $
 
KHHR - Hawthorne, California, USA
Distance from station: ESE 45mi, 73km
Updated: Sat, 20-Oct-2018 10:53am PDT
Clear
Clear
 Wind from calm
Wind: Calm
Temperature: 82°F , 28°C
Dew Point: 32°F , 0°C
Humidity: 16%
Barometer: 29.95 inHg , 1014.2 hPa
Clouds: Clear
Visibility: 10 miles , 16 km
2018/10/20 17:53 KHHR 201753Z 00000KT 10SM CLR 28/00 A2995 RMK AO2 SLP142 T02830000 10283 20156 58001
KSBA - Santa Barbara, California, USA
Distance from station: WNW 49mi, 79km
Updated: Sat, 20-Oct-2018 10:53am PDT
Clear
Clear
 Wind from SSE
Wind: SSE 6 mph , 9 km/h
Temperature: 79°F , 26°C
Dew Point: 37°F , 3°C
Humidity: 23%
Barometer: 29.95 inHg , 1014.2 hPa
Clouds: Clear
Visibility: 10 miles , 16 km
2018/10/20 17:53 KSBA 201753Z 15005KT 10SM CLR 26/03 A2995 RMK AO2 SLP142 T02610033 10261 20100 50003